createdAt,value
2023-03-05T00:00:09.315Z,0.04
2023-03-05T00:05:06.669Z,0.04
2023-03-05T00:10:06.570Z,0.04
2023-03-05T00:15:06.156Z,0.04
2023-03-05T00:20:05.598Z,0.04
2023-03-05T00:25:05.190Z,0.04
2023-03-05T00:30:05.201Z,0.04
2023-03-05T00:35:05.119Z,0.04
2023-03-05T00:40:04.735Z,0.04
2023-03-05T00:45:06.246Z,0.04
2023-03-05T00:50:01.897Z,0.04
2023-03-05T00:55:02.749Z,0.04
2023-03-05T00:59:23.057Z,0.04
2023-03-05T01:04:23.365Z,0.04
2023-03-05T01:09:20.162Z,0.04
2023-03-05T01:14:20.032Z,0.04
2023-03-05T01:19:19.790Z,0.04
2023-03-05T01:24:19.160Z,0.04
2023-03-05T01:29:18.774Z,0.04
2023-03-05T01:34:19.810Z,0.04
2023-03-05T01:39:18.480Z,0.04
2023-03-05T01:44:18.130Z,0.04
2023-03-05T01:49:15.310Z,0.04
2023-03-05T01:54:15.263Z,0.04
2023-03-05T01:59:08.524Z,0.04
2023-03-05T02:04:08.889Z,0.04
2023-03-05T02:09:09.844Z,0.04
2023-03-05T02:14:12.210Z,0.04
2023-03-05T02:19:08.881Z,0.04
2023-03-05T02:24:09.232Z,0.04
2023-03-05T02:29:08.906Z,0.04
2023-03-05T02:34:06.013Z,0.04
2023-03-05T02:39:05.879Z,0.04
2023-03-05T02:44:06.285Z,0.04
2023-03-05T02:49:04.863Z,0.04
2023-03-05T02:54:02.540Z,0.04
2023-03-05T02:58:47.833Z,0.05
2023-03-05T03:03:47.080Z,0.04
2023-03-05T03:08:46.560Z,0.04
2023-03-05T03:13:44.987Z,0.04
2023-03-05T03:18:44.748Z,0.04
2023-03-05T03:23:44.326Z,0.05
2023-03-05T03:28:43.903Z,0.04
2023-03-05T03:33:52.550Z,0.04
2023-03-05T03:38:51.806Z,0.04
2023-03-05T03:43:52.325Z,0.04
2023-03-05T03:48:50.577Z,0.04
2023-03-05T03:53:51.136Z,0.04
2023-03-05T03:58:50.809Z,0.04
2023-03-05T04:03:51.956Z,0.05
2023-03-05T04:08:48.712Z,0.04
2023-03-05T04:13:49.992Z,0.04
2023-03-05T04:18:49.636Z,0.04
2023-03-05T04:23:46.730Z,0.04
2023-03-05T04:28:46.516Z,0.04
2023-03-05T04:33:47.294Z,0.04
2023-03-05T04:38:33.918Z,0.04
2023-03-05T04:43:33.919Z,0.04
2023-03-05T04:48:34.040Z,0.04
2023-03-05T04:53:34.412Z,0.04
2023-03-05T04:58:30.969Z,0.04
2023-03-05T04:59:51.959Z,0.04
2023-03-05T05:04:51.191Z,0.05
2023-03-05T05:09:50.917Z,0.04
2023-03-05T05:14:48.741Z,0.04
2023-03-05T05:19:48.383Z,0.04
2023-03-05T05:24:47.940Z,0.04
2023-03-05T05:29:47.368Z,0.04
2023-03-05T05:34:47.187Z,0.05
2023-03-05T05:39:46.648Z,0.05
2023-03-05T05:44:46.973Z,0.05
2023-03-05T05:49:46.185Z,0.06
2023-03-05T05:54:47.362Z,0.09
2023-03-05T05:58:54.092Z,0.13
2023-03-05T06:03:54.245Z,0.19
2023-03-05T06:08:54.143Z,0.25
2023-03-05T06:13:53.610Z,0.28
2023-03-05T06:18:51.313Z,0.34
2023-03-05T06:23:51.264Z,0.31
2023-03-05T06:28:51.673Z,0.43
2023-03-05T06:33:53.024Z,0.53
2023-03-05T06:38:53.934Z,0.6
2023-03-05T06:43:48.833Z,0.79
2023-03-05T06:48:48.119Z,0.85
2023-03-05T06:53:51.561Z,1.06
2023-03-05T06:58:45.919Z,1.14
2023-03-05T07:03:45.740Z,1.42
2023-03-05T07:08:45.012Z,1.23
2023-03-05T07:13:44.833Z,1.04
2023-03-05T07:18:44.349Z,0.99
2023-03-05T07:23:43.760Z,1.68
2023-03-05T07:28:44.185Z,2.25
2023-03-05T07:33:43.732Z,2.91
2023-03-05T07:38:44.485Z,2.74
2023-03-05T07:43:51.601Z,2.5
2023-03-05T07:48:51.401Z,2.25
2023-03-05T07:53:51.633Z,1.91
2023-03-05T07:58:49.630Z,2.1
2023-03-05T08:03:49.333Z,2.91
2023-03-05T08:08:50.091Z,3.64
2023-03-05T08:13:46.849Z,4.37
2023-03-05T08:18:46.837Z,4.58
2023-03-05T08:23:47.224Z,4.52
2023-03-05T08:28:36.452Z,4.55
2023-03-05T08:33:37.391Z,4.68
2023-03-05T08:38:34.607Z,5.4
2023-03-05T08:43:34.058Z,5.8
2023-03-05T08:48:33.911Z,6.78
2023-03-05T08:53:33.339Z,5.48
2023-03-05T08:58:34.148Z,5.31
2023-03-05T08:59:54.912Z,5.48
2023-03-05T09:04:55.968Z,5.58
2023-03-05T09:09:52.648Z,5.2
2023-03-05T09:14:53.978Z,4.79
2023-03-05T09:19:52.573Z,4.16
2023-03-05T09:24:52.459Z,4.09
2023-03-05T09:29:49.301Z,4.06
2023-03-05T09:39:48.657Z,5.47
2023-03-05T09:44:49.258Z,5.41
2023-03-05T09:49:45.740Z,6.02
2023-03-05T09:54:45.779Z,6.7
2023-03-05T09:59:15.417Z,7.56
2023-03-05T10:04:14.097Z,7.5
2023-03-05T10:09:11.461Z,6.21
2023-03-05T10:14:12.440Z,6.1
2023-03-05T10:19:10.935Z,5.44
2023-03-05T10:24:12.284Z,4.07
2023-03-05T10:29:08.182Z,4.04
2023-03-05T10:34:08.301Z,5.37
2023-03-05T10:39:07.686Z,4.91
2023-03-05T10:44:07.651Z,4.94
2023-03-05T10:49:04.906Z,3.68
2023-03-05T10:54:05.689Z,3.04
2023-03-05T10:59:45.418Z,2.16
2023-03-05T11:03:52.384Z,2.51
2023-03-05T11:08:50.978Z,3.95
2023-03-05T11:13:51.779Z,3.63
2023-03-05T11:18:50.107Z,3.61
2023-03-05T11:23:49.865Z,3.77
2023-03-05T11:28:49.969Z,2.95
2023-03-05T11:33:49.642Z,2.51
2023-03-05T11:38:50.596Z,3.17
2023-03-05T11:43:46.724Z,4.1
2023-03-05T11:48:47.140Z,2.9
2023-03-05T11:53:46.500Z,3.08
2023-03-05T11:58:46.425Z,2.83
2023-03-05T12:03:43.949Z,2.92
2023-03-05T12:08:43.636Z,3.44
2023-03-05T12:13:46.569Z,4.86
2023-03-05T12:18:54.038Z,5
2023-03-05T12:23:51.787Z,4.43
2023-03-05T12:28:51.224Z,3.55
2023-03-05T12:33:51.078Z,3.72
2023-03-05T12:38:49.829Z,4.63
2023-03-05T12:43:50.012Z,4.65
2023-03-05T12:48:49.939Z,4.47
2023-03-05T12:53:50.423Z,4.56
2023-03-05T12:58:47.490Z,4.42
2023-03-05T13:00:09.428Z,4.36
2023-03-05T13:05:10.321Z,4.07
2023-03-05T13:10:06.686Z,4.48
2023-03-05T13:15:06.777Z,3.5
2023-03-05T13:20:06.301Z,3.27
2023-03-05T13:25:05.944Z,3.37
2023-03-05T13:30:04.616Z,2.74
2023-03-05T13:35:03.629Z,2.01
2023-03-05T13:40:03.237Z,1.65
2023-03-05T13:45:03.210Z,1.32
2023-03-05T13:50:02.381Z,1
2023-03-05T13:55:01.939Z,0.93
2023-03-05T13:59:22.953Z,1.86
2023-03-05T14:04:22.526Z,2.33
2023-03-05T14:09:23.902Z,2.77
2023-03-05T14:14:19.813Z,3.13
2023-03-05T14:19:19.468Z,2.9
2023-03-05T14:24:18.503Z,2.53
2023-03-05T14:29:18.454Z,2.64
2023-03-05T14:34:16.385Z,2.52
2023-03-05T14:39:16.909Z,2.31
2023-03-05T14:44:16.378Z,2.45
2023-03-05T14:49:17.392Z,2.37
2023-03-05T14:54:13.631Z,1.99
2023-03-05T14:59:08.528Z,1.54
2023-03-05T15:04:08.559Z,1.18
2023-03-05T15:09:09.070Z,1.4
2023-03-05T15:14:05.824Z,1.62
2023-03-05T15:19:05.242Z,1.74
2023-03-05T15:24:05.534Z,1.72
2023-03-05T15:29:04.294Z,1.73
2023-03-05T15:34:04.094Z,1.9
2023-03-05T15:39:04.119Z,1.92
2023-03-05T15:49:03.654Z,1.55
2023-03-05T15:54:05.126Z,1.31
2023-03-05T15:58:46.642Z,1.11
2023-03-05T16:03:46.927Z,0.92
2023-03-05T16:08:46.141Z,0.82
2023-03-05T16:13:44.968Z,0.75
2023-03-05T16:18:44.567Z,0.62
2023-03-05T16:23:44.766Z,0.54
2023-03-05T16:28:43.952Z,0.51
2023-03-05T16:33:45.403Z,0.47
2023-03-05T16:38:52.776Z,0.43
2023-03-05T16:43:51.908Z,0.37
2023-03-05T16:48:52.574Z,0.28
2023-03-05T16:53:50.204Z,0.26
2023-03-05T16:58:54.324Z,0.24
2023-03-05T17:03:50.090Z,0.18
2023-03-05T17:08:48.824Z,0.14
2023-03-05T17:13:51.249Z,0.1
2023-03-05T17:18:48.699Z,0.08
2023-03-05T17:23:49.334Z,0.06
2023-03-05T17:28:46.374Z,0.05
2023-03-05T17:33:36.026Z,0.05
2023-03-05T17:38:35.487Z,0.05
2023-03-05T17:43:34.416Z,0.05
2023-03-05T17:48:34.349Z,0.04
2023-03-05T17:53:34.177Z,0.04
2023-03-05T17:58:34.220Z,0.04
2023-03-05T17:59:55.801Z,0.04
2023-03-05T18:04:55.860Z,0.04
2023-03-05T18:09:54.997Z,0.04
2023-03-05T18:14:54.895Z,0.04
2023-03-05T18:19:53.839Z,0.04
2023-03-05T18:24:53.507Z,0.05
2023-03-05T18:29:53.529Z,0.04
2023-03-05T18:34:53.205Z,0.04
2023-03-05T18:39:53.957Z,0.05
2023-03-05T18:44:49.924Z,0.04
2023-03-05T18:49:50.162Z,0.05
2023-03-05T18:54:49.315Z,0.04
2023-03-05T18:58:56.964Z,0.04
2023-03-05T19:03:53.519Z,0.04
2023-03-05T19:08:53.546Z,0.04
2023-03-05T19:13:52.810Z,0.04
2023-03-05T19:18:52.205Z,0.04
2023-03-05T19:23:51.653Z,0.05
2023-03-05T19:28:52.303Z,0.04
2023-03-05T19:33:51.288Z,0.04
2023-03-05T19:38:52.359Z,0.04
2023-03-05T19:43:48.651Z,0.04
2023-03-05T19:48:48.803Z,0.04
2023-03-05T19:53:47.710Z,0.04
2023-03-05T19:58:47.869Z,0.04
2023-03-05T20:03:47.112Z,0.04
2023-03-05T20:08:47.292Z,0.04
2023-03-05T20:13:45.860Z,0.04
2023-03-05T20:18:45.758Z,0.04
2023-03-05T20:23:46.923Z,0.04
2023-03-05T20:28:43.372Z,0.04
2023-03-05T20:33:43.270Z,0.04
2023-03-05T20:38:53.646Z,0.04
2023-03-05T20:43:53.713Z,0.04
2023-03-05T20:48:50.654Z,0.04
2023-03-05T20:53:50.571Z,0.04
2023-03-05T20:58:52.267Z,0.04
2023-03-05T21:03:49.016Z,0.04
2023-03-05T21:08:49.174Z,0.04
2023-03-05T21:13:50.375Z,0.04
2023-03-05T21:18:47.416Z,0.04
2023-03-05T21:23:47.548Z,0.04
2023-03-05T21:28:47.729Z,0.04
2023-03-05T21:33:34.677Z,0.04
2023-03-05T21:38:34.847Z,0.04
2023-03-05T21:43:33.976Z,0.04
2023-03-05T21:48:34.134Z,0.04
2023-03-05T21:53:31.378Z,0.04
2023-03-05T21:58:31.149Z,0.04
2023-03-05T21:59:53.096Z,0.04
2023-03-05T22:04:52.706Z,0.04
2023-03-05T22:09:51.864Z,0.04
2023-03-05T22:14:51.373Z,0.04
2023-03-05T22:19:51.371Z,0.04
2023-03-05T22:24:51.034Z,0.04
2023-03-05T22:29:52.382Z,0.04
2023-03-05T22:34:48.437Z,0.04
2023-03-05T22:39:48.823Z,0.04
2023-03-05T22:44:48.720Z,0.05
2023-03-05T22:49:48.964Z,0.04
2023-03-05T22:54:47.857Z,0.04
2023-03-05T22:59:13.299Z,0.04
2023-03-05T23:04:13.656Z,0.04
2023-03-05T23:09:14.478Z,0.04
2023-03-05T23:14:10.676Z,0.04
2023-03-05T23:19:10.451Z,0.04
2023-03-05T23:24:09.940Z,0.04
2023-03-05T23:29:09.987Z,0.04
2023-03-05T23:34:07.397Z,0.04
2023-03-05T23:39:07.113Z,0.04
2023-03-05T23:44:06.187Z,0.04
2023-03-05T23:49:06.379Z,0.04
2023-03-05T23:54:05.516Z,0.04
2023-03-05T23:58:50.969Z,0.04
